Time;durP1;ratioP1;P1;durP2;ratioP2;P2;SDS_P1;SDS_P2;PMS_P1;PMS_P2;Temp;Humidity;BMP_temperature;BMP_pressure;BME280_temperature;BME280_humidity;BME280_pressure;Samples;Min_cycle;Max_cycle;Signal;HPM_P1;HPM_P2
2022/07/10 00:00:21;;;;;;;2.42;1.92;;;;;;;25.71;42.83;101332.16;5074707;28;20044;-78
2022/07/10 00:02:48;;;;;;;3.33;1.90;;;;;;;25.72;42.68;101334.69;5075384;28;20369;-78
2022/07/10 00:05:16;;;;;;;2.92;2.05;;;;;;;25.72;42.76;101329.25;5075671;28;20059;-77
2022/07/10 00:07:47;;;;;;;3.70;1.60;;;;;;;25.74;42.48;101337.25;5074392;28;20052;-78
2022/07/10 00:10:17;;;;;;;2.55;1.80;;;;;;;25.75;42.78;101331.66;5074767;28;20044;-78
2022/07/10 00:12:45;;;;;;;3.15;1.98;;;;;;;25.75;43.00;101333.53;5074582;28;20431;-77
2022/07/10 00:15:14;;;;;;;3.17;1.70;;;;;;;25.76;43.04;101327.94;5074498;28;20056;-77
2022/07/10 00:17:43;;;;;;;2.88;1.88;;;;;;;25.77;42.89;101323.38;5074472;28;20045;-78
2022/07/10 00:20:12;;;;;;;3.53;1.45;;;;;;;25.77;42.93;101323.38;5074766;28;20476;-77
2022/07/10 00:22:40;;;;;;;2.67;1.98;;;;;;;25.78;43.18;101334.09;5073103;28;20050;-78
2022/07/10 00:25:10;;;;;;;3.10;2.10;;;;;;;25.79;42.88;101341.22;5073024;28;20044;-78
2022/07/10 00:27:38;;;;;;;2.70;1.90;;;;;;;25.79;43.16;101335.78;5074663;28;20049;-78
2022/07/10 00:30:07;;;;;;;4.07;1.85;;;;;;;25.80;43.12;101328.50;5072989;28;20056;-78
2022/07/10 00:32:34;;;;;;;2.75;1.60;;;;;;;25.81;43.11;101327.50;5074569;28;20037;-79
2022/07/10 00:35:02;;;;;;;3.30;1.40;;;;;;;25.81;43.23;101322.06;5073091;28;20044;-78
2022/07/10 00:37:29;;;;;;;3.90;2.22;;;;;;;25.82;43.49;101321.06;5073890;28;20051;-78
2022/07/10 00:39:56;;;;;;;5.47;1.98;;;;;;;25.82;43.26;101312.91;5073856;28;20052;-78
2022/07/10 00:42:26;;;;;;;4.30;1.75;;;;;;;25.82;43.48;101319.19;5056343;28;20049;-79
2022/07/10 00:44:53;;;;;;;4.13;2.05;;;;;;;25.83;43.49;101320.03;5073084;28;20055;-78
2022/07/10 00:47:20;;;;;;;5.63;1.73;;;;;;;25.84;43.38;101319.00;5074202;28;20369;-77
2022/07/10 00:49:48;;;;;;;2.42;1.58;;;;;;;25.83;43.30;101309.19;5073636;28;20047;-78
2022/07/10 00:52:17;;;;;;;2.40;1.60;;;;;;;25.84;43.32;101316.31;5085061;28;20040;-78
2022/07/10 00:54:47;;;;;;;2.47;1.77;;;;;;;25.83;43.29;101307.31;5094050;28;20486;-77
2022/07/10 00:57:15;;;;;;;2.45;1.80;;;;;;;25.85;43.27;101312.59;5078173;28;20056;-77
2022/07/10 00:59:44;;;;;;;2.47;1.70;;;;;;;25.86;43.48;101306.16;5093236;28;20040;-78
2022/07/10 01:02:13;;;;;;;2.90;1.85;;;;;;;25.85;43.57;101297.16;5095037;28;20384;-78
2022/07/10 01:04:42;;;;;;;3.30;2.00;;;;;;;25.86;43.55;101298.00;5093775;28;20051;-78
2022/07/10 01:07:09;;;;;;;3.38;1.95;;;;;;;25.85;43.49;101293.63;5093134;28;20048;-78
2022/07/10 01:09:36;;;;;;;2.40;1.63;;;;;;;25.85;43.63;101291.75;5093831;28;20426;-78
2022/07/10 01:12:05;;;;;;;2.42;1.52;;;;;;;25.86;43.60;101284.44;5093778;28;20059;-78
2022/07/10 01:14:32;;;;;;;3.25;1.90;;;;;;;25.87;43.71;101284.28;5093701;28;20040;-78
2022/07/10 01:16:59;;;;;;;2.55;1.73;;;;;;;25.86;43.74;101276.31;5093716;28;20043;-77
2022/07/10 01:19:27;;;;;;;2.47;1.75;;;;;;;25.87;43.74;101278.00;5093349;28;20055;-77
2022/07/10 01:21:54;;;;;;;3.53;2.08;;;;;;;25.88;43.98;101274.28;5091974;28;20408;-77
2022/07/10 01:24:21;;;;;;;2.95;2.00;;;;;;;25.87;44.08;101269.88;5092359;28;20391;-78
2022/07/10 01:26:49;;;;;;;2.40;1.80;;;;;;;25.88;44.03;101271.56;5093251;28;20048;-77
2022/07/10 01:29:17;;;;;;;3.58;1.80;;;;;;;25.88;43.90;101274.28;5093530;28;20051;-77
2022/07/10 01:31:45;;;;;;;3.88;1.90;;;;;;;25.87;43.80;101281.56;5093737;28;20059;-78
2022/07/10 01:34:13;;;;;;;2.00;1.65;;;;;;;25.88;43.84;101275.13;5093069;28;20051;-77
2022/07/10 01:36:41;;;;;;;4.78;2.08;;;;;;;25.88;43.82;101275.13;5082239;28;20063;-77
2022/07/10 01:39:08;;;;;;;2.58;1.75;;;;;;;25.88;43.91;101264.28;5090985;28;20044;-77
2022/07/10 01:41:36;;;;;;;2.50;2.03;;;;;;;25.89;43.71;101262.44;5092959;28;20044;-77
2022/07/10 01:44:03;;;;;;;2.65;1.83;;;;;;;25.91;43.93;101273.09;5093211;28;20040;-77
2022/07/10 01:46:30;;;;;;;3.38;1.70;;;;;;;25.89;43.69;101271.41;5093460;28;20055;-77
2022/07/10 01:48:58;;;;;;;4.65;1.50;;;;;;;25.90;43.57;101264.13;5092188;28;20059;-77
2022/07/10 01:51:25;;;;;;;2.20;1.70;;;;;;;25.91;43.64;101264.97;5091618;28;20055;-78
2022/07/10 01:53:52;;;;;;;2.58;1.60;;;;;;;25.90;43.81;101264.13;5093451;28;20040;-78
2022/07/10 01:56:20;;;;;;;3.55;1.88;;;;;;;25.92;43.70;101263.94;5093345;28;20047;-78
2022/07/10 01:58:47;;;;;;;3.25;1.92;;;;;;;25.91;43.78;101262.25;5075223;28;20459;-78
2022/07/10 02:01:14;;;;;;;3.58;1.60;;;;;;;25.91;43.69;101257.69;5072653;28;20056;-77
2022/07/10 02:06:28;;;;;;;2.40;1.75;;;;;;;25.91;43.66;101256.84;5072922;28;20071;-78
2022/07/10 02:08:55;;;;;;;2.65;1.70;;;;;;;25.91;43.73;101262.25;5072618;28;20423;-78
2022/07/10 02:11:22;;;;;;;3.45;1.50;;;;;;;25.91;43.62;101254.97;5072629;28;20051;-77
2022/07/10 02:13:50;;;;;;;3.38;1.95;;;;;;;25.90;43.88;101250.56;5072763;28;20041;-77
2022/07/10 02:16:17;;;;;;;3.60;1.75;;;;;;;25.91;43.90;101251.41;5071844;28;20412;-77
2022/07/10 02:18:45;;;;;;;2.38;1.58;;;;;;;25.92;43.86;101253.09;5073034;28;20044;-77
2022/07/10 02:21:12;;;;;;;2.53;1.70;;;;;;;25.91;43.89;101252.25;5072668;28;20053;-77
2022/07/10 02:23:40;;;;;;;4.35;2.03;;;;;;;25.92;43.76;101253.09;5072295;28;20063;-77
2022/07/10 02:26:08;;;;;;;4.25;2.17;;;;;;;25.91;43.78;101254.97;5072442;28;20044;-76
2022/07/10 02:28:35;;;;;;;3.13;1.60;;;;;;;25.90;43.81;101250.56;5072662;28;20056;-77
2022/07/10 02:31:03;;;;;;;3.20;2.13;;;;;;;25.91;43.99;101252.25;5070507;28;20055;-77
2022/07/10 02:33:31;;;;;;;3.13;1.90;;;;;;;25.91;43.85;101251.41;5072359;28;20048;-77
2022/07/10 02:35:58;;;;;;;2.53;1.70;;;;;;;25.90;43.96;101247.84;5072562;28;20060;-77
2022/07/10 02:38:25;;;;;;;2.78;1.80;;;;;;;25.89;43.90;101247.00;5072046;28;20045;-77
2022/07/10 02:40:53;;;;;;;2.42;1.65;;;;;;;25.89;43.71;101246.16;5072116;28;20044;-78
2022/07/10 02:43:20;;;;;;;2.35;1.50;;;;;;;25.90;43.89;101247.84;5072503;28;20407;-78
2022/07/10 02:45:47;;;;;;;2.33;1.60;;;;;;;25.92;43.89;101251.22;5072539;28;20044;-77
2022/07/10 02:48:16;;;;;;;5.22;2.00;;;;;;;25.91;43.92;101252.25;5072476;28;20048;-77
2022/07/10 02:50:44;;;;;;;2.58;2.17;;;;;;;25.90;43.82;101247.84;5072091;28;20048;-78
2022/07/10 02:53:11;;;;;;;2.40;1.70;;;;;;;25.91;43.91;101240.56;5088434;28;20040;-77
2022/07/10 02:55:38;;;;;;;2.58;1.60;;;;;;;25.91;43.98;101245.97;5090971;28;20048;-78
2022/07/10 02:58:06;;;;;;;2.70;1.60;;;;;;;25.91;44.00;101249.53;5073254;28;20048;-77
2022/07/10 03:00:33;;;;;;;2.97;1.75;;;;;;;25.89;43.83;101246.16;5084002;28;20052;-79
2022/07/10 03:03:00;;;;;;;3.08;1.67;;;;;;;25.90;43.94;101253.28;5075501;28;20056;-78
2022/07/10 03:05:28;;;;;;;3.15;1.88;;;;;;;25.91;43.97;101254.13;5074739;28;20045;-79
2022/07/10 03:07:55;;;;;;;2.70;2.13;;;;;;;25.90;43.93;101250.56;5076381;28;20055;-79
2022/07/10 03:10:23;;;;;;;3.50;1.70;;;;;;;25.91;43.97;101248.69;5074810;28;20052;-80
2022/07/10 03:12:50;;;;;;;3.13;1.70;;;;;;;25.91;43.92;101252.25;5075728;28;20048;-79
2022/07/10 03:15:17;;;;;;;2.42;1.83;;;;;;;25.92;43.91;101236.81;5076166;28;20040;-79
2022/07/10 03:17:45;;;;;;;3.08;1.60;;;;;;;25.92;43.93;101243.09;5075684;28;20040;-79
2022/07/10 03:20:12;;;;;;;3.13;1.70;;;;;;;25.92;44.04;101236.81;5075976;28;20045;-79
2022/07/10 03:22:39;;;;;;;3.33;1.75;;;;;;;25.92;44.24;101243.09;5073924;28;20059;-75
2022/07/10 03:25:07;;;;;;;3.33;1.90;;;;;;;25.93;44.16;101244.81;5075043;28;20060;-78
2022/07/10 03:27:35;;;;;;;2.60;1.83;;;;;;;25.89;44.40;101232.59;5075545;28;20044;-78
2022/07/10 03:30:03;;;;;;;3.22;2.08;;;;;;;25.89;44.36;101240.72;5075252;28;20059;-77
2022/07/10 03:32:31;;;;;;;2.80;2.10;;;;;;;25.87;44.40;101245.47;5075135;28;20055;-78
2022/07/10 03:34:58;;;;;;;3.63;2.10;;;;;;;25.84;44.75;101234.94;5075616;28;20037;-77
2022/07/10 03:37:26;;;;;;;5.85;1.88;;;;;;;25.82;44.62;101229.69;5075435;28;20412;-77
2022/07/10 03:39:54;;;;;;;3.05;1.85;;;;;;;25.81;44.92;101227.16;5095304;28;20063;-77
2022/07/10 03:42:21;;;;;;;5.15;2.10;;;;;;;25.80;45.09;101230.84;5095460;28;20048;-78
2022/07/10 03:44:48;;;;;;;2.55;1.70;;;;;;;25.77;44.95;101232.06;5095390;28;20040;-79
2022/07/10 03:47:15;;;;;;;3.13;2.13;;;;;;;25.77;45.05;101226.63;5095168;28;20051;-79
2022/07/10 03:49:43;;;;;;;3.03;1.92;;;;;;;25.75;45.18;101230.47;5094975;28;20052;-77
2022/07/10 03:52:10;;;;;;;3.00;1.70;;;;;;;25.73;45.23;101233.38;5095338;28;20071;-78
2022/07/10 03:54:37;;;;;;;2.60;1.80;;;;;;;25.74;45.42;101228.78;5094994;28;20063;-78
2022/07/10 03:59:50;;;;;;;3.50;1.88;;;;;;;25.75;45.63;101220.47;5083359;28;20048;-78
2022/07/10 04:02:18;;;;;;;3.38;2.00;;;;;;;25.76;45.68;101221.31;5075991;28;20044;-77
2022/07/10 04:04:45;;;;;;;3.20;2.10;;;;;;;25.75;45.73;101220.47;5074547;28;20047;-78
2022/07/10 04:07:12;;;;;;;3.33;2.30;;;;;;;25.73;45.69;101222.50;5074683;28;20049;-78
2022/07/10 04:09:40;;;;;;;2.85;2.03;;;;;;;25.74;45.77;101228.78;5073894;28;20510;-77
2022/07/10 04:12:08;;;;;;;2.53;2.00;;;;;;;25.72;45.64;101222.66;5073913;28;20408;-77
2022/07/10 04:14:35;;;;;;;4.35;1.90;;;;;;;25.72;45.74;101226.22;5074815;28;20045;-77
2022/07/10 04:17:03;;;;;;;2.75;1.88;;;;;;;25.72;45.53;101222.66;5074722;28;20041;-77
2022/07/10 04:19:30;;;;;;;4.03;2.10;;;;;;;25.69;45.79;101223.00;5072031;28;20049;-77
2022/07/10 04:21:57;;;;;;;3.13;2.15;;;;;;;25.68;45.77;101224.00;5074854;28;20047;-78
2022/07/10 04:24:25;;;;;;;2.83;2.20;;;;;;;25.67;45.55;101214.19;5072635;28;20051;-78
2022/07/10 04:26:52;;;;;;;3.80;2.00;;;;;;;25.65;45.51;101206.22;5074032;28;20041;-78
2022/07/10 04:29:19;;;;;;;3.78;1.95;;;;;;;25.65;45.34;101212.50;5074428;28;20048;-78
2022/07/10 04:31:47;;;;;;;2.72;2.05;;;;;;;25.65;45.38;101214.34;5074753;28;20488;-78
2022/07/10 04:34:14;;;;;;;2.88;1.95;;;;;;;25.67;45.24;101214.19;5074300;28;20059;-79
2022/07/10 04:36:42;;;;;;;3.40;1.67;;;;;;;25.66;45.49;101205.19;5076966;28;20480;-78
2022/07/10 04:39:09;;;;;;;2.97;2.08;;;;;;;25.69;45.26;101201.31;5072254;28;20053;-77
2022/07/10 04:41:37;;;;;;;2.92;1.70;;;;;;;25.69;45.03;101204.88;5074248;28;20048;-78
2022/07/10 04:44:04;;;;;;;2.45;2.00;;;;;;;25.70;44.79;101203.84;5074030;28;20404;-77
2022/07/10 04:46:31;;;;;;;2.45;2.00;;;;;;;25.70;44.58;101194.88;5073790;28;20045;-77
2022/07/10 04:48:59;;;;;;;2.90;2.13;;;;;;;25.69;44.43;101193.19;5073907;28;20400;-77
2022/07/10 04:51:26;;;;;;;3.55;2.08;;;;;;;25.70;44.34;101203.00;5074163;28;20408;-77
2022/07/10 04:53:54;;;;;;;3.58;1.98;;;;;;;25.69;43.98;101193.19;5086018;28;20056;-78
2022/07/10 04:56:21;;;;;;;2.72;2.00;;;;;;;25.69;43.99;101193.19;5092137;28;20059;-77
2022/07/10 04:58:48;;;;;;;3.10;2.00;;;;;;;25.71;44.29;101191.13;5092832;28;20055;-78
2022/07/10 05:01:20;;;;;;;4.38;2.30;;;;;;;25.71;44.22;101186.56;5078379;28;20055;-78
2022/07/10 05:03:47;;;;;;;2.67;2.00;;;;;;;25.71;44.27;101180.28;5093311;28;20055;-78
2022/07/10 05:06:15;;;;;;;3.05;1.90;;;;;;;25.71;44.34;101181.13;5093882;28;20070;-79
2022/07/10 05:08:42;;;;;;;2.72;1.92;;;;;;;25.72;43.97;101174.69;5093692;28;20056;-79
2022/07/10 05:11:10;;;;;;;3.85;2.42;;;;;;;25.74;44.05;101182.69;5093763;28;20514;-78
2022/07/10 05:13:38;;;;;;;4.40;2.30;;;;;;;25.73;43.99;101175.56;5093805;28;20048;-79
2022/07/10 05:16:05;;;;;;;4.20;2.10;;;;;;;25.73;43.88;101179.13;5093728;28;20507;-79
2022/07/10 05:18:33;;;;;;;3.05;2.00;;;;;;;25.73;43.85;101183.69;5093634;28;20051;-79
2022/07/10 05:21:00;;;;;;;5.00;1.60;;;;;;;25.73;43.78;101183.69;5093569;28;20495;-79
2022/07/10 05:23:28;;;;;;;2.40;1.70;;;;;;;25.73;43.60;101181.00;5092616;28;20048;-79
2022/07/10 05:25:55;;;;;;;2.78;1.95;;;;;;;25.72;43.50;101179.28;5093094;28;20048;-78
2022/07/10 05:28:22;;;;;;;3.55;1.70;;;;;;;25.73;43.67;101181.00;5093365;28;20047;-78
2022/07/10 05:30:50;;;;;;;2.28;1.75;;;;;;;25.73;43.69;101181.84;5093357;28;20055;-78
2022/07/10 05:33:18;;;;;;;2.83;1.95;;;;;;;25.74;43.78;101177.25;5093995;28;20052;-78
2022/07/10 05:35:45;;;;;;;2.30;1.75;;;;;;;25.74;43.91;101183.53;5091795;28;20036;-78
2022/07/10 05:38:13;;;;;;;2.92;1.80;;;;;;;25.74;43.73;101171.84;5073202;28;20055;-78
2022/07/10 05:40:40;;;;;;;2.85;2.15;;;;;;;25.74;43.56;101182.69;5089028;28;20062;-77
2022/07/10 05:43:09;;;;;;;2.78;1.95;;;;;;;25.75;43.76;101177.06;5093517;28;20055;-77
2022/07/10 05:45:37;;;;;;;3.15;1.35;;;;;;;25.74;43.83;101175.38;5093395;28;20051;-77
2022/07/10 05:48:05;;;;;;;2.67;1.60;;;;;;;25.76;43.72;101177.91;5093778;28;20051;-77
2022/07/10 05:50:32;;;;;;;2.47;1.75;;;;;;;25.76;43.84;101177.91;5093485;28;20483;-77
2022/07/10 05:53:00;;;;;;;3.35;1.85;;;;;;;25.74;43.99;101180.81;5092044;28;20407;-78
2022/07/10 05:55:27;;;;;;;2.35;1.80;;;;;;;25.74;43.71;101177.25;5093272;28;20044;-77
2022/07/10 05:57:55;;;;;;;3.30;1.90;;;;;;;25.74;43.87;101182.69;5092867;28;20048;-78
2022/07/10 06:00:22;;;;;;;3.03;2.03;;;;;;;25.73;44.29;101179.13;5092933;28;20407;-78
2022/07/10 06:02:50;;;;;;;3.15;1.92;;;;;;;25.73;44.12;101183.69;5071718;28;20048;-77
2022/07/10 06:05:17;;;;;;;2.65;2.00;;;;;;;25.72;44.04;101171.97;5071513;28;20043;-77
2022/07/10 06:07:44;;;;;;;2.30;1.48;;;;;;;25.73;44.09;101172.84;5072608;28;20051;-76
2022/07/10 06:10:12;;;;;;;2.88;1.77;;;;;;;25.73;43.92;101173.69;5071702;28;20044;-77
2022/07/10 06:12:39;;;;;;;3.58;1.95;;;;;;;25.74;43.94;101171.84;5072329;28;20036;-77
2022/07/10 06:15:07;;;;;;;2.20;1.58;;;;;;;25.75;44.05;101173.53;5072710;28;20036;-77
2022/07/10 06:17:35;;;;;;;3.97;1.58;;;;;;;25.75;44.00;101178.94;5071634;28;20108;-76
2022/07/10 06:20:03;;;;;;;3.83;2.13;;;;;;;25.76;44.07;101178.78;5072712;28;20416;-77
2022/07/10 06:22:30;;;;;;;4.00;1.80;;;;;;;25.76;44.28;101178.78;5071273;28;20055;-77
2022/07/10 06:25:04;;;;;;;3.95;1.90;;;;;;;25.77;44.30;101177.81;5072640;28;20047;-77
2022/07/10 06:27:32;;;;;;;3.25;2.10;;;;;;;25.78;44.34;101182.22;5072779;28;20067;-77
2022/07/10 06:30:00;;;;;;;3.13;2.17;;;;;;;25.80;44.30;101179.31;5072689;28;20036;-77
2022/07/10 06:32:28;;;;;;;4.03;1.98;;;;;;;25.79;44.20;101189.31;5073381;28;20040;-77
2022/07/10 06:34:55;;;;;;;2.72;1.65;;;;;;;25.80;44.41;101180.16;5073023;28;20075;-76
2022/07/10 06:37:23;;;;;;;3.17;1.85;;;;;;;25.80;44.29;101177.44;5076732;28;20407;-76
2022/07/10 06:39:50;;;;;;;3.60;2.00;;;;;;;25.81;44.11;101181.03;5076629;28;20056;-76
2022/07/10 06:42:18;;;;;;;2.83;2.13;;;;;;;25.82;43.98;101174.59;5076303;28;20067;-77
2022/07/10 06:44:49;;;;;;;3.30;1.75;;;;;;;25.83;43.85;101171.69;5075340;28;20059;-76
2022/07/10 06:50:07;;;;;;;2.78;1.70;;;;;;;25.85;44.04;101168.84;5076489;28;20047;-78
2022/07/10 06:52:35;;;;;;;3.50;1.90;;;;;;;25.84;44.04;101157.13;5076751;28;20047;-77
2022/07/10 06:55:03;;;;;;;3.80;1.70;;;;;;;25.87;44.46;101164.09;5096783;28;20044;-78
2022/07/10 06:57:31;;;;;;;4.53;2.03;;;;;;;25.87;44.15;101155.94;5096981;28;20040;-78
2022/07/10 06:59:58;;;;;;;3.90;1.77;;;;;;;25.88;44.60;101160.34;5097035;28;20070;-76
2022/07/10 07:02:26;;;;;;;3.55;1.80;;;;;;;25.88;44.28;101166.63;5090294;28;20040;-77
2022/07/10 07:04:53;;;;;;;2.40;2.00;;;;;;;25.89;44.28;101159.34;5075310;28;20041;-76
2022/07/10 07:07:20;;;;;;;3.67;1.60;;;;;;;25.89;44.45;101162.91;5075467;28;20071;-76
2022/07/10 07:09:52;;;;;;;5.10;2.10;;;;;;;25.90;44.59;101161.03;5075332;28;20052;-78
2022/07/10 07:12:19;;;;;;;3.95;1.85;;;;;;;25.92;44.51;101166.28;5076492;28;20056;-79
2022/07/10 07:14:47;;;;;;;2.40;1.77;;;;;;;25.92;44.25;101167.13;5076655;28;20048;-80
2022/07/10 07:17:21;;;;;;;4.10;2.05;;;;;;;25.88;42.92;101161.19;5076053;28;20044;-80
2022/07/10 07:25:22;;;;;;;4.00;2.17;;;;;;;25.75;41.78;101162.69;5077096;28;20056;-81
2022/07/10 07:27:50;;;;;;;4.10;2.17;;;;;;;25.71;41.89;101159.44;5075288;28;20404;-77
2022/07/10 07:30:17;;;;;;;4.40;2.20;;;;;;;25.67;42.72;101154.53;5077283;28;20388;-80
2022/07/10 07:32:47;;;;;;;4.15;2.10;;;;;;;25.62;42.52;101146.88;5076206;28;20036;-80
2022/07/10 07:35:16;;;;;;;3.65;1.80;;;;;;;25.57;41.72;101149.25;5076377;28;20474;-80
2022/07/10 07:37:51;;;;;;;3.17;2.13;;;;;;;25.54;42.04;101149.56;5076431;28;20045;-81
2022/07/10 07:40:22;;;;;;;4.50;2.05;;;;;;;25.54;42.29;101147.72;5077514;28;20048;-81
2022/07/10 07:42:51;;;;;;;3.08;1.70;;;;;;;25.56;42.44;101145.69;5078062;28;20055;-80
2022/07/10 07:45:18;;;;;;;3.13;1.40;;;;;;;25.58;42.64;101143.66;5076004;28;20055;-78
2022/07/10 07:47:47;;;;;;;2.95;1.90;;;;;;;25.59;42.04;101144.50;5075323;28;20056;-80
2022/07/10 07:50:17;;;;;;;3.83;2.08;;;;;;;25.60;42.04;101141.66;5074959;28;20052;-80
2022/07/10 07:52:45;;;;;;;2.42;1.88;;;;;;;25.60;42.16;101130.81;5076578;28;20052;-81
2022/07/10 07:55:15;;;;;;;3.20;1.98;;;;;;;25.61;42.16;101137.06;5076954;28;20412;-81
2022/07/10 07:57:43;;;;;;;2.25;1.55;;;;;;;25.61;42.31;101127.06;5074619;28;20045;-79
2022/07/10 08:00:12;;;;;;;4.18;1.98;;;;;;;25.64;42.47;101125.88;5076100;28;20045;-77
2022/07/10 08:02:40;;;;;;;3.58;1.95;;;;;;;25.65;42.45;101125.72;5075007;28;20396;-77
2022/07/10 08:05:09;;;;;;;4.38;1.60;;;;;;;25.68;42.77;101116.38;5072806;28;20048;-77
2022/07/10 08:07:44;;;;;;;6.47;2.33;;;;;;;25.69;42.46;101117.25;5075015;28;20051;-78
2022/07/10 08:10:14;;;;;;;3.88;2.30;;;;;;;25.72;43.01;101119.59;5075719;28;20045;-79
2022/07/10 08:12:42;;;;;;;3.67;1.85;;;;;;;25.73;42.52;101114.03;5074906;28;20049;-78
2022/07/10 08:15:11;;;;;;;3.03;2.00;;;;;;;25.75;43.01;101111.16;5075995;28;20056;-83
2022/07/10 08:17:39;;;;;;;3.22;1.60;;;;;;;25.77;43.01;101103.72;5074682;28;20381;-76
2022/07/10 08:20:10;;;;;;;6.72;2.05;;;;;;;25.79;42.96;101097.13;5075639;28;20044;-76
2022/07/10 08:22:39;;;;;;;2.30;1.63;;;;;;;25.81;42.83;101100.53;5074667;28;20071;-76
2022/07/10 08:25:08;;;;;;;3.70;1.70;;;;;;;25.83;42.94;101092.22;5073002;28;20048;-76
2022/07/10 08:27:36;;;;;;;4.13;1.83;;;;;;;25.83;42.62;101090.34;5074061;28;20055;-76
2022/07/10 08:30:11;;;;;;;2.78;1.75;;;;;;;25.85;42.85;101084.75;5074681;28;20051;-76
2022/07/10 08:32:39;;;;;;;6.32;1.77;;;;;;;25.84;42.18;101091.19;5108420;28;20044;-76
2022/07/10 08:35:08;;;;;;;5.38;1.67;;;;;;;25.85;42.38;101082.06;5115451;28;20050;-76
2022/07/10 08:37:40;;;;;;;3.28;1.70;;;;;;;25.87;42.45;101082.72;5095935;28;20040;-76
2022/07/10 08:40:12;;;;;;;5.57;2.57;;;;;;;25.87;42.35;101083.56;5094301;28;20048;-75
2022/07/10 08:42:41;;;;;;;6.93;1.83;;;;;;;25.89;42.50;101075.28;5094704;28;20043;-76
2022/07/10 08:45:09;;;;;;;3.00;1.75;;;;;;;25.91;42.79;101078.66;5094213;28;20044;-76
2022/07/10 08:47:38;;;;;;;2.63;1.60;;;;;;;25.94;42.67;101077.47;5094024;28;20047;-75
2022/07/10 08:50:23;;;;;;;3.88;1.95;;;;;;;25.95;42.59;101082.72;5094189;28;20051;-75
2022/07/10 08:53:07;;;;;;;3.65;1.67;;;;;;;25.97;42.47;101079.81;5093729;28;20070;-75
2022/07/10 08:55:36;;;;;;;4.25;1.95;;;;;;;25.97;41.91;101075.28;5073675;28;20410;-75
2022/07/10 08:58:06;;;;;;;3.30;1.95;;;;;;;26.00;41.99;101074.06;5073408;28;20396;-76
2022/07/10 09:00:34;;;;;;;3.13;1.70;;;;;;;26.00;41.16;101071.34;5073497;28;20476;-76
2022/07/10 09:03:01;;;;;;;4.80;1.70;;;;;;;26.00;39.94;101066.78;5074263;28;20048;-76
2022/07/10 09:05:29;;;;;;;3.42;2.03;;;;;;;26.03;40.75;101073.72;5070672;28;20044;-74
2022/07/10 09:07:56;;;;;;;2.65;1.73;;;;;;;26.02;40.46;101064.75;5073968;28;20052;-79
2022/07/10 09:10:26;;;;;;;1.73;1.20;;;;;;;26.04;40.01;101067.28;5089531;28;20122;-80
2022/07/10 09:12:57;;;;;;;3.17;1.50;;;;;;;26.05;39.46;101071.69;5091779;28;20052;-78
2022/07/10 09:15:29;;;;;;;2.60;1.55;;;;;;;26.04;39.03;101073.56;5094033;28;20051;-77
2022/07/10 09:17:57;;;;;;;2.75;1.65;;;;;;;26.04;38.86;101073.56;5075735;28;20048;-80
2022/07/10 09:20:31;;;;;;;2.20;1.50;;;;;;;26.05;39.03;101069.84;5094851;28;20048;-79
2022/07/10 09:23:25;;;;;;;2.97;1.50;;;;;;;26.06;38.74;101071.53;5094128;28;20051;-80
2022/07/10 09:25:53;;;;;;;4.70;1.50;;;;;;;26.07;38.78;101075.09;5093782;28;20062;-79
2022/07/10 09:28:22;;;;;;;4.15;1.75;;;;;;;26.08;39.13;101076.78;5092455;28;20048;-78
2022/07/10 09:30:49;;;;;;;1.90;1.42;;;;;;;26.08;39.05;101068.63;5093803;28;20483;-79
2022/07/10 09:33:27;;;;;;;4.47;1.63;;;;;;;26.08;39.47;101066.75;5093880;28;20040;-77
2022/07/10 09:36:07;;;;;;;3.35;1.30;;;;;;;26.09;38.99;101063.06;5093611;28;20048;-77
2022/07/10 09:38:43;;;;;;;3.17;1.23;;;;;;;26.10;39.18;101059.31;5093597;28;20059;-77
2022/07/10 09:41:14;;;;;;;2.22;1.48;;;;;;;26.11;39.54;101063.72;5091949;28;20063;-77
2022/07/10 09:43:45;;;;;;;3.35;1.60;;;;;;;26.12;39.97;101062.69;5091530;28;20048;-80
2022/07/10 09:46:14;;;;;;;4.72;1.23;;;;;;;26.14;39.96;101057.13;5094355;28;20407;-79
2022/07/10 09:48:42;;;;;;;2.55;1.50;;;;;;;26.14;40.29;101065.25;5075344;28;20403;-78
2022/07/10 09:51:11;;;;;;;3.80;1.38;;;;;;;26.14;40.17;101052.53;5094263;28;20048;-79
2022/07/10 09:53:43;;;;;;;2.90;1.77;;;;;;;26.17;39.96;101056.78;5094467;28;20502;-82
2022/07/10 09:56:12;;;;;;;4.07;1.35;;;;;;;26.22;39.84;101050.81;5076051;28;20051;-72
2022/07/10 09:58:40;;;;;;;3.08;1.40;;;;;;;26.24;39.99;101056.91;5093220;28;20044;-74
2022/07/10 10:01:09;;;;;;;4.38;1.55;;;;;;;26.25;38.97;101051.34;5093584;28;20067;-76
2022/07/10 10:03:39;;;;;;;3.38;1.42;;;;;;;26.27;38.40;101052.00;5091807;28;20406;-76
2022/07/10 10:06:18;;;;;;;3.17;1.50;;;;;;;26.31;37.91;101049.78;5076913;28;20045;-75
2022/07/10 10:08:57;;;;;;;3.30;1.60;;;;;;;26.32;37.94;101049.59;5091501;28;20036;-75
2022/07/10 10:11:27;;;;;;;2.10;1.48;;;;;;;26.32;37.47;101040.63;5096249;28;20452;-75
2022/07/10 10:13:56;;;;;;;2.20;1.38;;;;;;;26.32;37.84;101032.47;5097447;28;20048;-74
2022/07/10 10:16:27;;;;;;;2.55;1.38;;;;;;;26.30;37.94;101035.38;5097430;28;20506;-75
2022/07/10 10:21:49;;;;;;;3.58;1.70;;;;;;;26.31;37.39;101030.78;5096416;28;20067;-78
2022/07/10 10:24:17;;;;;;;3.33;1.80;;;;;;;26.31;37.44;101025.34;5097826;28;20051;-76
2022/07/10 10:26:45;;;;;;;7.60;2.10;;;;;;;26.33;38.80;101034.16;5097593;28;20044;-76
2022/07/10 10:29:13;;;;;;;4.07;1.55;;;;;;;26.35;39.71;101026.72;5096562;28;20040;-76
2022/07/10 10:31:42;;;;;;;3.08;1.85;;;;;;;26.34;39.54;101022.31;5096510;28;20040;-76
2022/07/10 10:34:09;;;;;;;4.57;1.60;;;;;;;26.34;39.45;101019.59;5097247;28;20155;-77
2022/07/10 10:36:37;;;;;;;4.53;1.92;;;;;;;26.34;38.39;101019.59;5086128;28;20041;-80
2022/07/10 10:39:18;;;;;;;4.55;2.05;;;;;;;26.35;38.05;101013.97;5075305;28;20064;-80
2022/07/10 10:41:53;;;;;;;2.67;1.67;;;;;;;26.34;38.23;101006.88;5075609;28;20052;-80
2022/07/10 10:44:22;;;;;;;2.92;1.40;;;;;;;26.35;37.97;101007.72;5077006;28;20048;-79
2022/07/10 10:46:50;;;;;;;2.60;1.80;;;;;;;26.36;37.11;101006.69;5076796;28;20048;-80
2022/07/10 10:49:20;;;;;;;2.85;1.67;;;;;;;26.36;37.76;101002.09;5076130;28;20055;-80
2022/07/10 10:52:03;;;;;;;2.17;1.48;;;;;;;26.36;38.18;100996.66;5077538;28;20067;-80
2022/07/10 10:55:14;;;;;;;2.58;1.52;;;;;;;26.36;38.14;100995.81;5074809;28;20040;-80
2022/07/10 10:57:47;;;;;;;7.68;1.73;;;;;;;26.38;37.03;100996.50;4995899;28;20046;-81
2022/07/10 11:00:31;;;;;;;3.17;1.45;;;;;;;26.39;37.22;100995.47;4995755;28;20054;-79
2022/07/10 11:03:19;;;;;;;4.85;2.00;;;;;;;26.39;36.89;100982.75;4978792;28;20154;-80
2022/07/10 11:05:50;;;;;;;3.90;1.80;;;;;;;26.42;37.09;100976.13;4996672;28;20538;-78
2022/07/10 11:08:43;;;;;;;5.93;2.00;;;;;;;26.44;37.51;100967.81;5008589;28;20054;-78
2022/07/10 11:11:57;;;;;;;3.92;1.70;;;;;;;26.45;37.80;100961.38;5011054;28;20461;-77
2022/07/10 11:14:28;;;;;;;3.88;1.75;;;;;;;26.44;37.88;100960.50;4937442;29;20058;-78
2022/07/10 11:16:55;;;;;;;3.90;1.63;;;;;;;26.46;37.76;100958.50;4920499;29;20515;-75
2022/07/10 11:19:25;;;;;;;2.35;1.60;;;;;;;26.47;37.53;100949.31;4935983;29;20055;-77
2022/07/10 11:22:24;;;;;;;2.85;1.92;;;;;;;26.51;36.70;100955.25;4919950;29;20064;-76
2022/07/10 11:25:14;;;;;;;2.55;1.65;;;;;;;26.53;36.96;100948.59;4879190;29;20061;-76
2022/07/10 11:28:18;;;;;;;4.13;1.70;;;;;;;26.57;36.72;100947.22;4875521;29;20506;-77
2022/07/10 11:30:53;;;;;;;3.33;1.50;;;;;;;26.55;37.36;100935.72;4926499;29;20547;-80
2022/07/10 11:33:22;;;;;;;3.25;1.73;;;;;;;26.55;37.15;100941.16;4956331;29;20506;-75
2022/07/10 11:35:51;;;;;;;2.20;1.45;;;;;;;26.56;37.20;100942.84;4955058;29;20059;-76
2022/07/10 11:38:23;;;;;;;3.92;1.50;;;;;;;26.54;37.50;100942.19;4954536;29;20110;-76
2022/07/10 11:40:54;;;;;;;3.58;1.52;;;;;;;26.54;37.66;100927.75;4954514;29;20059;-76
2022/07/10 11:43:23;;;;;;;3.10;1.65;;;;;;;26.52;37.83;100933.34;4954759;29;20063;-76
2022/07/10 11:45:54;;;;;;;3.33;2.03;;;;;;;26.52;38.00;100933.34;4954489;29;20102;-76
2022/07/10 11:48:23;;;;;;;3.20;1.60;;;;;;;26.52;37.78;100925.19;4973947;28;20081;-80
2022/07/10 11:50:51;;;;;;;2.90;1.58;;;;;;;26.51;37.79;100928.94;4978187;28;20050;-85